Time;durP1;ratioP1;P1;durP2;ratioP2;P2;SDS_P1;SDS_P2;PMS_P1;PMS_P2;Temp;Humidity;BMP_temperature;BMP_pressure;BME280_temperature;BME280_humidity;BME280_pressure;Samples;Min_cycle;Max_cycle;Signal;HPM_P1;HPM_P2
2022/06/29 00:02:06;;;;;;;;;2.00;2.00;;;;;;;;5098977;27;45720;-50
2022/06/29 00:04:31;;;;;;;;;2.00;2.00;;;;;;;;5097229;27;45384;-46
2022/06/29 00:06:56;;;;;;;;;2.50;2.50;;;;;;;;5098860;27;45731;-47
2022/06/29 00:09:21;;;;;;;;;2.00;0.25;;;;;;;;5070446;27;45976;-45
2022/06/29 00:11:47;;;;;;;;;2.25;2.25;;;;;;;;5094531;27;45684;-49
2022/06/29 00:14:12;;;;;;;;;2.00;2.00;;;;;;;;5098294;27;45345;-46
2022/06/29 00:16:37;;;;;;;;;3.00;3.00;;;;;;;;5098739;27;45285;-47
2022/06/29 00:19:03;;;;;;;;;2.75;2.75;;;;;;;;5098517;27;45285;-46
2022/06/29 00:21:28;;;;;;;;;3.25;2.00;;;;;;;;5098635;27;46206;-47
2022/06/29 00:23:53;;;;;;;;;2.25;2.25;;;;;;;;5097877;27;45651;-48
2022/06/29 00:26:18;;;;;;;;;2.75;2.75;;;;;;;;5098751;27;45264;-47
2022/06/29 00:28:44;;;;;;;;;1.00;1.00;;;;;;;;5098468;27;45407;-46
2022/06/29 00:31:09;;;;;;;;;2.25;2.25;;;;;;;;5096659;27;47364;-44
2022/06/29 00:33:34;;;;;;;;;2.75;2.75;;;;;;;;5098388;27;45237;-44
2022/06/29 00:36:00;;;;;;;;;3.25;3.00;;;;;;;;5098116;27;45440;-47
2022/06/29 00:38:25;;;;;;;;;3.00;3.00;;;;;;;;5098803;27;45381;-49
2022/06/29 00:40:50;;;;;;;;;1.00;1.00;;;;;;;;5097678;27;45382;-47
2022/06/29 00:43:15;;;;;;;;;2.50;2.50;;;;;;;;5098247;27;45336;-47
2022/06/29 00:45:41;;;;;;;;;4.00;2.00;;;;;;;;5098237;27;45322;-50
2022/06/29 00:48:06;;;;;;;;;2.00;2.00;;;;;;;;5097405;27;45506;-47
2022/06/29 00:50:32;;;;;;;;;3.00;2.00;;;;;;;;5097862;27;47262;-46
2022/06/29 00:53:03;;;;;;;;;4.25;3.00;;;;;;;;5097775;27;45639;-49
2022/06/29 00:55:29;;;;;;;;;2.40;2.00;;;;;;;;5098251;27;45755;-48
2022/06/29 00:57:55;;;;;;;;;2.00;2.00;;;;;;;;5098068;27;45430;-51
2022/06/29 01:00:20;;;;;;;;;2.25;2.25;;;;;;;;5097753;27;46824;-47
2022/06/29 01:02:45;;;;;;;;;2.25;2.25;;;;;;;;5097650;27;45217;-45
2022/06/29 01:05:11;;;;;;;;;2.75;2.75;;;;;;;;5097383;27;45402;-45
2022/06/29 01:07:36;;;;;;;;;2.75;2.75;;;;;;;;5098165;27;45569;-45
2022/06/29 01:10:02;;;;;;;;;3.00;3.00;;;;;;;;5097603;27;45640;-48
2022/06/29 01:12:27;;;;;;;;;3.75;2.50;;;;;;;;5097670;27;45337;-47
2022/06/29 01:14:53;;;;;;;;;5.00;3.00;;;;;;;;5097466;27;45375;-51
2022/06/29 01:17:19;;;;;;;;;2.50;2.50;;;;;;;;5096411;27;45473;-47
2022/06/29 01:19:44;;;;;;;;;4.00;3.50;;;;;;;;5097242;27;45442;-48
2022/06/29 01:22:10;;;;;;;;;3.25;3.25;;;;;;;;5096408;27;45396;-46
2022/06/29 01:24:35;;;;;;;;;4.50;4.50;;;;;;;;5097115;27;45392;-44
2022/06/29 01:27:01;;;;;;;;;3.50;2.25;;;;;;;;5097860;27;45220;-47
2022/06/29 01:29:27;;;;;;;;;4.00;2.75;;;;;;;;5096847;27;45431;-47
2022/06/29 01:31:55;;;;;;;;;3.75;3.75;;;;;;;;5097255;27;45415;-48
2022/06/29 01:34:20;;;;;;;;;3.00;3.00;;;;;;;;5097463;27;45442;-48
2022/06/29 01:36:45;;;;;;;;;3.00;2.50;;;;;;;;5097358;27;45301;-48
2022/06/29 01:39:11;;;;;;;;;2.50;2.50;;;;;;;;5097154;27;46479;-44
2022/06/29 01:41:36;;;;;;;;;2.75;2.75;;;;;;;;5096729;27;45521;-50
2022/06/29 01:44:01;;;;;;;;;2.75;2.75;;;;;;;;5097482;27;45442;-47
2022/06/29 01:46:27;;;;;;;;;3.00;2.50;;;;;;;;5097509;27;45362;-51
2022/06/29 01:48:52;;;;;;;;;5.00;4.00;;;;;;;;5096849;27;46708;-50
2022/06/29 01:51:17;;;;;;;;;1.75;1.00;;;;;;;;5097200;27;45408;-47
2022/06/29 01:53:43;;;;;;;;;4.50;3.00;;;;;;;;5096656;27;45408;-49
2022/06/29 01:56:08;;;;;;;;;2.75;2.75;;;;;;;;5078734;27;45589;-46
2022/06/29 01:58:33;;;;;;;;;7.75;4.75;;;;;;;;5104784;27;46835;-44
2022/06/29 02:00:59;;;;;;;;;3.00;2.25;;;;;;;;5117334;27;45224;-45
2022/06/29 02:03:24;;;;;;;;;3.00;3.00;;;;;;;;5117762;27;45205;-47
2022/06/29 02:05:49;;;;;;;;;4.00;4.00;;;;;;;;5117492;27;45567;-47
2022/06/29 02:08:14;;;;;;;;;3.25;2.50;;;;;;;;5116077;27;45546;-48
2022/06/29 02:10:40;;;;;;;;;2.00;2.00;;;;;;;;5117229;27;45358;-51
2022/06/29 02:13:05;;;;;;;;;3.00;3.00;;;;;;;;5117457;27;45294;-47
2022/06/29 02:15:30;;;;;;;;;3.25;2.00;;;;;;;;5117503;27;45406;-47
2022/06/29 02:17:56;;;;;;;;;3.75;3.00;;;;;;;;5116752;27;45575;-45
2022/06/29 02:20:21;;;;;;;;;4.00;4.00;;;;;;;;5117323;27;45371;-45
2022/06/29 02:22:46;;;;;;;;;2.50;2.50;;;;;;;;5117375;27;45302;-48
2022/06/29 02:25:11;;;;;;;;;2.00;2.00;;;;;;;;5117293;27;45474;-46
2022/06/29 02:27:41;;;;;;;;;4.00;3.00;;;;;;;;5116979;27;45667;-49
2022/06/29 02:30:09;;;;;;;;;2.40;2.40;;;;;;;;5116742;27;45424;-47
2022/06/29 02:35:18;;;;;;;;;3.20;3.20;;;;;;;;5117397;27;45453;-42
2022/06/29 02:37:43;;;;;;;;;3.00;3.00;;;;;;;;5116863;27;46633;-45
2022/06/29 02:40:09;;;;;;;;;4.75;3.00;;;;;;;;5113862;27;45365;-47
2022/06/29 02:42:34;;;;;;;;;3.75;2.50;;;;;;;;5096698;27;45339;-48
2022/06/29 02:44:59;;;;;;;;;4.00;3.00;;;;;;;;5096405;27;45593;-49
2022/06/29 02:47:25;;;;;;;;;3.00;3.00;;;;;;;;5096093;27;45784;-47
2022/06/29 02:49:50;;;;;;;;;2.50;2.50;;;;;;;;5096040;27;45299;-47
2022/06/29 02:52:15;;;;;;;;;4.50;3.00;;;;;;;;5095923;27;45393;-49
2022/06/29 02:54:40;;;;;;;;;5.75;5.25;;;;;;;;5096608;27;45689;-45
2022/06/29 02:57:06;;;;;;;;;3.00;3.00;;;;;;;;5095802;27;45298;-45
2022/06/29 02:59:31;;;;;;;;;5.00;4.00;;;;;;;;5070931;27;47661;-46
2022/06/29 03:01:57;;;;;;;;;4.00;3.25;;;;;;;;5116953;27;45379;-48
2022/06/29 03:04:22;;;;;;;;;3.00;3.00;;;;;;;;5116483;27;45358;-49
2022/06/29 03:06:47;;;;;;;;;4.00;3.25;;;;;;;;5115540;27;45665;-45
2022/06/29 03:09:12;;;;;;;;;3.00;3.00;;;;;;;;5115838;27;45331;-45
2022/06/29 03:11:38;;;;;;;;;3.00;2.00;;;;;;;;5119871;27;45323;-44
2022/06/29 03:14:03;;;;;;;;;3.00;3.00;;;;;;;;5120308;27;45514;-46
2022/06/29 03:16:29;;;;;;;;;3.00;3.00;;;;;;;;5119897;27;46809;-45
2022/06/29 03:18:54;;;;;;;;;3.50;2.50;;;;;;;;5119944;27;45371;-47
2022/06/29 03:21:19;;;;;;;;;3.25;3.25;;;;;;;;5119910;27;45416;-46
2022/06/29 03:23:45;;;;;;;;;3.25;3.25;;;;;;;;5120194;27;45378;-48
2022/06/29 03:26:11;;;;;;;;;4.25;2.00;;;;;;;;5119699;27;46013;-49
2022/06/29 03:28:36;;;;;;;;;2.00;2.00;;;;;;;;5119735;27;45377;-47
2022/06/29 03:31:01;;;;;;;;;3.75;2.00;;;;;;;;5119926;27;45324;-46
2022/06/29 03:33:27;;;;;;;;;2.75;2.25;;;;;;;;5120099;27;45326;-44
2022/06/29 03:35:52;;;;;;;;;3.50;3.00;;;;;;;;5119536;27;46837;-43
2022/06/29 03:38:17;;;;;;;;;2.25;2.25;;;;;;;;5120005;27;45358;-45
2022/06/29 03:40:42;;;;;;;;;4.00;4.00;;;;;;;;5115449;27;45433;-45
2022/06/29 03:43:08;;;;;;;;;3.50;3.00;;;;;;;;5099683;27;45335;-48
2022/06/29 03:45:33;;;;;;;;;4.00;3.00;;;;;;;;5098689;27;46455;-47
2022/06/29 03:47:58;;;;;;;;;3.25;2.00;;;;;;;;5099415;27;45728;-47
2022/06/29 03:50:23;;;;;;;;;3.00;3.00;;;;;;;;5098901;27;45432;-51
2022/06/29 03:52:49;;;;;;;;;2.00;2.00;;;;;;;;5099094;27;45296;-47
2022/06/29 03:55:15;;;;;;;;;3.25;3.00;;;;;;;;5098890;27;45308;-45
2022/06/29 03:57:40;;;;;;;;;4.50;3.00;;;;;;;;5098826;27;45368;-47
2022/06/29 04:00:06;;;;;;;;;4.00;4.00;;;;;;;;5099210;27;45479;-48
2022/06/29 04:02:31;;;;;;;;;3.00;3.00;;;;;;;;5083156;27;46316;-50
2022/06/29 04:04:56;;;;;;;;;4.75;3.00;;;;;;;;5096627;27;46156;-48
2022/06/29 04:07:23;;;;;;;;;3.00;3.00;;;;;;;;5095450;27;45376;-49
2022/06/29 04:09:48;;;;;;;;;4.40;2.20;;;;;;;;5098162;27;45437;-49
2022/06/29 04:12:13;;;;;;;;;6.75;4.25;;;;;;;;5098425;27;45585;-49
2022/06/29 04:14:38;;;;;;;;;4.00;4.00;;;;;;;;5098903;27;45706;-43
2022/06/29 04:17:04;;;;;;;;;5.75;4.75;;;;;;;;5096508;27;45414;-44
2022/06/29 04:19:29;;;;;;;;;4.00;4.00;;;;;;;;5097376;27;45438;-45
2022/06/29 04:21:54;;;;;;;;;7.00;4.75;;;;;;;;5097596;27;45897;-51
2022/06/29 04:24:20;;;;;;;;;3.00;2.25;;;;;;;;5097371;27;45483;-48
2022/06/29 04:26:45;;;;;;;;;4.00;3.00;;;;;;;;5098694;27;45288;-47
2022/06/29 04:29:11;;;;;;;;;2.00;2.00;;;;;;;;5098842;27;45551;-47
2022/06/29 04:31:36;;;;;;;;;6.25;5.00;;;;;;;;5099104;27;45515;-46
2022/06/29 04:34:02;;;;;;;;;5.00;3.25;;;;;;;;5098650;27;46053;-44
2022/06/29 04:36:27;;;;;;;;;3.00;3.00;;;;;;;;5097611;27;45505;-45
2022/06/29 04:38:53;;;;;;;;;3.00;3.00;;;;;;;;5098747;27;45403;-48
2022/06/29 04:41:19;;;;;;;;;2.25;2.25;;;;;;;;5099001;27;45441;-48
2022/06/29 04:43:44;;;;;;;;;4.00;4.00;;;;;;;;5097083;27;46456;-47
2022/06/29 04:46:19;;;;;;;;;4.00;4.00;;;;;;;;5098815;27;45957;-49
2022/06/29 04:48:44;;;;;;;;;5.00;5.00;;;;;;;;5098586;27;45402;-48
2022/06/29 04:51:09;;;;;;;;;7.25;5.00;;;;;;;;5098636;27;45277;-46
2022/06/29 04:53:35;;;;;;;;;4.75;4.75;;;;;;;;5098443;27;45499;-48
2022/06/29 04:56:00;;;;;;;;;5.25;4.00;;;;;;;;5097961;27;45303;-52
2022/06/29 04:58:25;;;;;;;;;4.25;4.00;;;;;;;;5097457;27;45607;-48
2022/06/29 05:00:51;;;;;;;;;4.00;4.00;;;;;;;;5098368;27;45606;-48
2022/06/29 05:03:16;;;;;;;;;5.25;5.25;;;;;;;;5098401;27;45750;-48
2022/06/29 05:05:41;;;;;;;;;4.25;4.25;;;;;;;;5098146;27;45311;-45
2022/06/29 05:08:06;;;;;;;;;5.25;2.75;;;;;;;;5098169;27;45327;-41
2022/06/29 05:10:32;;;;;;;;;4.00;4.00;;;;;;;;5098409;27;45282;-46
2022/06/29 05:12:57;;;;;;;;;3.50;3.50;;;;;;;;5096610;27;47021;-46
2022/06/29 05:15:22;;;;;;;;;5.50;5.50;;;;;;;;5098262;27;45284;-47
2022/06/29 05:17:48;;;;;;;;;4.00;1.00;;;;;;;;5098297;27;45382;-48
2022/06/29 05:20:13;;;;;;;;;4.25;3.50;;;;;;;;5096905;27;45288;-50
2022/06/29 05:22:38;;;;;;;;;5.00;4.00;;;;;;;;5098115;27;45900;-48
2022/06/29 05:25:04;;;;;;;;;2.50;2.50;;;;;;;;5097371;27;45253;-46
2022/06/29 05:27:29;;;;;;;;;4.00;3.25;;;;;;;;5097435;27;45419;-45
2022/06/29 05:29:54;;;;;;;;;7.00;4.00;;;;;;;;5097993;27;45336;-43
2022/06/29 05:32:20;;;;;;;;;5.75;4.50;;;;;;;;5097291;27;46326;-51
2022/06/29 05:34:45;;;;;;;;;4.00;4.00;;;;;;;;5097413;27;45835;-49
2022/06/29 05:37:10;;;;;;;;;4.00;3.50;;;;;;;;5097011;27;45438;-49
2022/06/29 05:39:35;;;;;;;;;5.00;2.00;;;;;;;;5098039;27;45286;-49
2022/06/29 05:42:01;;;;;;;;;3.75;3.75;;;;;;;;5096860;27;45565;-47
2022/06/29 05:44:26;;;;;;;;;4.00;3.50;;;;;;;;5097340;27;45229;-49
2022/06/29 05:46:51;;;;;;;;;3.50;2.50;;;;;;;;5097498;27;45416;-48
2022/06/29 05:49:17;;;;;;;;;4.00;4.00;;;;;;;;5097516;27;45338;-46
2022/06/29 05:51:42;;;;;;;;;2.50;2.00;;;;;;;;5097064;27;45387;-43
2022/06/29 05:54:07;;;;;;;;;3.75;3.75;;;;;;;;5097007;27;45291;-45
2022/06/29 05:56:33;;;;;;;;;2.00;1.50;;;;;;;;5097413;27;45236;-51
2022/06/29 05:58:58;;;;;;;;;4.00;4.00;;;;;;;;5097714;27;45400;-50
2022/06/29 06:01:23;;;;;;;;;3.00;3.00;;;;;;;;5096681;27;46706;-49
2022/06/29 06:03:48;;;;;;;;;4.75;4.75;;;;;;;;5096945;27;45355;-52
2022/06/29 06:06:14;;;;;;;;;4.25;2.25;;;;;;;;5096900;27;45440;-46
2022/06/29 06:08:39;;;;;;;;;2.75;2.75;;;;;;;;5097000;27;45944;-48
2022/06/29 06:11:04;;;;;;;;;1.75;1.75;;;;;;;;5097150;27;45761;-47
2022/06/29 06:13:29;;;;;;;;;1.75;1.75;;;;;;;;5096663;27;45302;-45
2022/06/29 06:15:55;;;;;;;;;0.75;0.75;;;;;;;;5097071;27;45370;-45
2022/06/29 06:18:20;;;;;;;;;0.75;0.75;;;;;;;;5096891;27;45295;-46
2022/06/29 06:20:45;;;;;;;;;1.25;1.25;;;;;;;;5096775;27;47011;-46
2022/06/29 06:23:11;;;;;;;;;3.25;2.00;;;;;;;;5096483;27;45385;-47
2022/06/29 06:25:36;;;;;;;;;2.25;2.25;;;;;;;;5097068;27;45438;-50
2022/06/29 06:28:01;;;;;;;;;2.75;1.75;;;;;;;;5097024;27;45253;-47
2022/06/29 06:30:27;;;;;;;;;2.50;2.50;;;;;;;;5096351;27;45749;-47
2022/06/29 06:32:52;;;;;;;;;4.00;2.75;;;;;;;;5066811;27;45577;-47
2022/06/29 06:35:19;;;;;;;;;4.75;3.00;;;;;;;;5075446;27;45752;-44
2022/06/29 06:37:44;;;;;;;;;3.80;2.60;;;;;;;;5071517;27;45926;-47
2022/06/29 06:42:54;;;;;;;;;3.80;2.00;;;;;;;;5091135;27;45413;-54
2022/06/29 06:45:19;;;;;;;;;3.00;2.50;;;;;;;;5091715;27;45757;-53
2022/06/29 06:47:44;;;;;;;;;3.25;3.25;;;;;;;;5061752;27;46011;-49
2022/06/29 06:50:09;;;;;;;;;4.00;2.50;;;;;;;;5092188;27;46171;-52
2022/06/29 06:52:35;;;;;;;;;4.00;3.00;;;;;;;;5091805;27;45447;-47
2022/06/29 06:55:00;;;;;;;;;3.25;3.00;;;;;;;;5090871;27;45793;-47
2022/06/29 06:57:25;;;;;;;;;3.50;2.25;;;;;;;;5092757;27;45733;-45
2022/06/29 06:59:53;;;;;;;;;4.25;1.75;;;;;;;;5091793;27;46464;-47
2022/06/29 07:02:18;;;;;;;;;2.00;2.00;;;;;;;;5092240;27;45469;-49
2022/06/29 07:04:46;;;;;;;;;1.00;1.00;;;;;;;;5092003;27;45598;-50
2022/06/29 07:07:12;;;;;;;;;1.80;1.80;;;;;;;;5092519;27;45403;-47
2022/06/29 07:09:37;;;;;;;;;3.50;2.00;;;;;;;;5091920;27;45454;-47
2022/06/29 07:12:03;;;;;;;;;1.50;1.50;;;;;;;;5090594;27;45408;-46
2022/06/29 07:14:28;;;;;;;;;1.50;1.00;;;;;;;;5090738;27;45478;-49
2022/06/29 07:16:56;;;;;;;;;0.75;0.75;;;;;;;;5092298;27;46000;-52
2022/06/29 07:19:21;;;;;;;;;2.00;2.00;;;;;;;;5073922;27;47084;-55
2022/06/29 07:21:47;;;;;;;;;1.50;1.50;;;;;;;;5090393;27;45946;-53
2022/06/29 07:24:12;;;;;;;;;2.00;1.75;;;;;;;;5090370;27;45495;-51
2022/06/29 07:26:37;;;;;;;;;1.25;1.25;;;;;;;;5092124;27;45578;-50
2022/06/29 07:29:02;;;;;;;;;1.00;1.00;;;;;;;;5091419;27;46448;-44
2022/06/29 07:31:28;;;;;;;;;3.75;1.25;;;;;;;;5091860;27;45444;-50
2022/06/29 07:33:53;;;;;;;;;1.25;1.00;;;;;;;;5081990;27;45833;-47
2022/06/29 07:36:18;;;;;;;;;2.75;2.75;;;;;;;;5092097;27;45715;-51
2022/06/29 07:38:44;;;;;;;;;2.00;1.00;;;;;;;;5091718;27;46784;-48
2022/06/29 07:41:09;;;;;;;;;4.00;2.00;;;;;;;;5091534;27;45445;-54
2022/06/29 07:43:34;;;;;;;;;2.25;2.00;;;;;;;;5091815;27;45414;-53
2022/06/29 07:45:59;;;;;;;;;3.50;3.50;;;;;;;;5091624;27;45351;-49
2022/06/29 07:48:25;;;;;;;;;1.25;1.00;;;;;;;;5090751;27;46751;-44
2022/06/29 07:50:50;;;;;;;;;1.00;1.00;;;;;;;;5060652;27;45408;-48
2022/06/29 07:53:16;;;;;;;;;1.50;1.50;;;;;;;;5091626;27;45374;-50
2022/06/29 07:55:44;;;;;;;;;3.25;1.50;;;;;;;;5091767;27;45608;-47
2022/06/29 07:58:09;;;;;;;;;1.00;1.00;;;;;;;;5094863;27;46104;-50
2022/06/29 08:00:36;;;;;;;;;3.00;1.50;;;;;;;;5095100;27;45485;-49
2022/06/29 08:03:01;;;;;;;;;2.60;1.00;;;;;;;;5094903;27;45563;-51
2022/06/29 08:05:26;;;;;;;;;4.00;1.50;;;;;;;;5095209;27;45776;-47
2022/06/29 08:07:52;;;;;;;;;1.25;1.25;;;;;;;;5094948;27;45986;-50
2022/06/29 08:10:17;;;;;;;;;1.25;1.00;;;;;;;;5094799;27;45774;-52
2022/06/29 08:12:43;;;;;;;;;1.25;1.25;;;;;;;;5094946;27;45497;-52
2022/06/29 08:15:08;;;;;;;;;1.00;1.00;;;;;;;;5094565;27;45456;-51
2022/06/29 08:17:34;;;;;;;;;4.25;3.00;;;;;;;;5093637;27;46391;-50
2022/06/29 08:20:00;;;;;;;;;2.80;1.80;;;;;;;;5093514;27;45432;-49
2022/06/29 08:22:25;;;;;;;;;2.00;2.00;;;;;;;;5094965;27;45509;-48
2022/06/29 08:24:50;;;;;;;;;2.75;1.50;;;;;;;;5092924;27;45456;-48
2022/06/29 08:27:19;;;;;;;;;3.50;2.00;;;;;;;;5092807;27;46688;-51
2022/06/29 08:29:44;;;;;;;;;3.00;2.00;;;;;;;;5094494;27;45403;-54
2022/06/29 08:32:09;;;;;;;;;1.00;1.00;;;;;;;;5073642;27;45808;-53
2022/06/29 08:34:38;;;;;;;;;2.00;2.00;;;;;;;;5081180;27;45805;-50
2022/06/29 08:37:04;;;;;;;;;0.60;0.60;;;;;;;;5080346;27;45774;-47
2022/06/29 08:39:29;;;;;;;;;2.25;2.00;;;;;;;;5092748;27;45890;-48
2022/06/29 08:41:55;;;;;;;;;1.25;1.25;;;;;;;;5093647;27;45669;-50
2022/06/29 08:44:21;;;;;;;;;2.00;2.00;;;;;;;;5091954;27;45473;-47
2022/06/29 08:46:46;;;;;;;;;1.80;1.80;;;;;;;;5092399;27;45739;-53
2022/06/29 08:49:11;;;;;;;;;1.00;1.00;;;;;;;;5093108;27;45375;-53
2022/06/29 08:51:36;;;;;;;;;3.00;3.00;;;;;;;;5092354;27;45661;-49
2022/06/29 08:54:03;;;;;;;;;2.75;1.75;;;;;;;;5083312;27;45449;-48
2022/06/29 08:56:29;;;;;;;;;2.80;1.00;;;;;;;;5070226;27;47324;-47
2022/06/29 08:58:54;;;;;;;;;2.00;2.00;;;;;;;;5091873;27;45764;-45
2022/06/29 09:01:19;;;;;;;;;1.50;1.00;;;;;;;;5091321;27;45913;-47
2022/06/29 09:03:45;;;;;;;;;1.00;1.00;;;;;;;;5093372;27;45576;-50
2022/06/29 09:06:10;;;;;;;;;2.00;1.00;;;;;;;;5072282;27;46281;-50
2022/06/29 09:08:35;;;;;;;;;1.50;1.00;;;;;;;;5071542;27;45956;-48
2022/06/29 09:11:19;;;;;;;;;2.00;2.00;;;;;;;;5072783;28;45469;-47
2022/06/29 09:13:45;;;;;;;;;4.00;2.60;;;;;;;;5072169;27;45494;-48
2022/06/29 09:16:10;;;;;;;;;1.00;0.00;;;;;;;;5072890;28;46813;-43
2022/06/29 09:18:35;;;;;;;;;1.00;1.00;;;;;;;;5072994;27;45536;-47
2022/06/29 09:21:01;;;;;;;;;2.00;1.00;;;;;;;;5073499;28;46015;-52
2022/06/29 09:23:27;;;;;;;;;1.40;1.20;;;;;;;;5076206;27;45391;-54
2022/06/29 09:25:53;;;;;;;;;2.00;2.00;;;;;;;;5091921;27;45728;-51
2022/06/29 09:28:19;;;;;;;;;1.00;1.00;;;;;;;;5093410;27;45435;-55
2022/06/29 09:30:44;;;;;;;;;1.00;1.00;;;;;;;;5093491;27;45440;-47
2022/06/29 09:33:10;;;;;;;;;1.25;1.25;;;;;;;;5066156;27;46507;-47
2022/06/29 09:35:35;;;;;;;;;2.50;2.50;;;;;;;;5091667;27;46554;-46
2022/06/29 09:38:19;;;;;;;;;2.50;2.50;;;;;;;;5092393;27;45629;-48
2022/06/29 09:40:57;;;;;;;;;2.00;2.00;;;;;;;;5091854;27;45805;-49
2022/06/29 09:43:22;;;;;;;;;1.00;1.00;;;;;;;;5092595;27;45552;-47
2022/06/29 09:45:48;;;;;;;;;2.25;2.25;;;;;;;;5091588;27;45905;-48
2022/06/29 09:48:14;;;;;;;;;1.00;1.00;;;;;;;;5092023;27;45696;-49
2022/06/29 09:50:39;;;;;;;;;1.25;1.25;;;;;;;;5090589;27;45429;-49
2022/06/29 09:53:04;;;;;;;;;1.25;1.00;;;;;;;;5091243;27;45683;-49
2022/06/29 09:55:29;;;;;;;;;2.00;1.00;;;;;;;;5089201;27;47510;-48
2022/06/29 09:57:55;;;;;;;;;1.00;1.00;;;;;;;;5091901;27;45401;-48
2022/06/29 10:03:07;;;;;;;;;1.00;1.00;;;;;;;;5090794;27;45547;-44
2022/06/29 10:08:17;;;;;;;;;1.20;1.20;;;;;;;;5090987;27;45414;-49
2022/06/29 10:10:43;;;;;;;;;2.00;2.00;;;;;;;;5090248;27;45903;-48
2022/06/29 10:16:19;;;;;;;;;1.00;1.00;;;;;;;;5046871;28;46729;-51
2022/06/29 10:19:20;;;;;;;;;3.00;1.00;;;;;;;;5048050;28;45504;-48
2022/06/29 10:21:45;;;;;;;;;2.80;2.20;;;;;;;;5015654;28;45640;-45
2022/06/29 10:24:11;;;;;;;;;2.50;1.00;;;;;;;;5077612;27;45496;-46
2022/06/29 10:26:37;;;;;;;;;2.00;2.00;;;;;;;;5089880;27;45882;-47
2022/06/29 10:29:05;;;;;;;;;2.00;1.80;;;;;;;;5082541;27;45756;-49
2022/06/29 10:31:49;;;;;;;;;2.00;2.00;;;;;;;;5071421;28;45605;-50
2022/06/29 10:36:58;;;;;;;;;1.00;1.00;;;;;;;;5071391;28;46451;-50
2022/06/29 10:39:23;;;;;;;;;4.40;3.00;;;;;;;;5071880;27;45503;-49
2022/06/29 10:44:51;;;;;;;;;2.40;2.40;;;;;;;;5092455;27;45758;-45
2022/06/29 10:47:23;;;;;;;;;2.80;2.80;;;;;;;;5091612;27;46282;-48
2022/06/29 10:49:49;;;;;;;;;2.80;1.60;;;;;;;;5045972;28;45528;-55
2022/06/29 10:52:15;;;;;;;;;4.00;3.00;;;;;;;;5071909;27;45534;-49
2022/06/29 10:54:40;;;;;;;;;3.00;2.00;;;;;;;;5071768;28;45668;-48
2022/06/29 10:57:05;;;;;;;;;1.25;1.25;;;;;;;;5071106;28;45730;-46
2022/06/29 10:59:34;;;;;;;;;2.00;2.00;;;;;;;;5070185;27;45440;-48
2022/06/29 11:02:09;;;;;;;;;2.00;2.00;;;;;;;;5091753;27;45825;-52
2022/06/29 11:04:35;;;;;;;;;1.40;1.00;;;;;;;;5090969;27;45372;-47
2022/06/29 11:12:32;;;;;;;;;2.40;1.40;;;;;;;;5090521;27;45789;-51
2022/06/29 11:17:47;;;;;;;;;0.80;0.80;;;;;;;;5091427;27;45869;-50
2022/06/29 11:20:16;;;;;;;;;1.00;1.00;;;;;;;;5091647;27;45564;-51
2022/06/29 11:22:51;;;;;;;;;2.40;2.00;;;;;;;;5091978;27;45454;-47
2022/06/29 11:25:16;;;;;;;;;1.80;1.80;;;;;;;;5090292;27;45387;-51
2022/06/29 11:27:41;;;;;;;;;2.00;2.00;;;;;;;;5091114;27;46084;-49
2022/06/29 11:30:08;;;;;;;;;3.50;2.25;;;;;;;;5091533;27;45441;-46
2022/06/29 11:32:34;;;;;;;;;3.20;3.20;;;;;;;;5064998;27;45497;-48
2022/06/29 11:34:59;;;;;;;;;0.40;0.40;;;;;;;;5095388;27;45589;-47
2022/06/29 11:37:24;;;;;;;;;2.75;1.75;;;;;;;;5094686;27;46905;-52
2022/06/29 11:39:50;;;;;;;;;2.50;2.50;;;;;;;;5094909;27;45449;-47
2022/06/29 11:45:06;;;;;;;;;1.60;1.40;;;;;;;;5092812;27;46126;-46
2022/06/29 11:47:31;;;;;;;;;1.00;1.00;;;;;;;;5093280;27;46671;-48
2022/06/29 11:49:57;;;;;;;;;1.00;1.00;;;;;;;;5075273;27;45418;-48
2022/06/29 11:52:31;;;;;;;;;4.50;1.25;;;;;;;;5086561;27;45469;-52
2022/06/29 11:55:00;;;;;;;;;1.00;1.00;;;;;;;;5090960;27;45518;-44
2022/06/29 11:57:26;;;;;;;;;1.40;1.40;;;;;;;;5091865;27;46164;-51
2022/06/29 11:59:52;;;;;;;;;1.25;1.25;;;;;;;;5094680;27;45740;-48
2022/06/29 12:02:17;;;;;;;;;1.00;1.00;;;;;;;;5094971;27;45410;-49
2022/06/29 12:04:43;;;;;;;;;2.00;2.00;;;;;;;;5092445;27;45699;-51
2022/06/29 12:07:09;;;;;;;;;2.00;2.00;;;;;;;;5094525;27;46941;-46
2022/06/29 12:09:34;;;;;;;;;1.00;1.00;;;;;;;;5094390;27;45790;-47
2022/06/29 12:12:00;;;;;;;;;1.00;1.00;;;;;;;;5094398;27;45691;-48
2022/06/29 12:14:25;;;;;;;;;2.00;1.00;;;;;;;;5094922;27;46022;-46
2022/06/29 12:16:50;;;;;;;;;2.00;2.00;;;;;;;;5092895;27;47880;-48
2022/06/29 12:19:15;;;;;;;;;1.00;1.00;;;;;;;;5094353;27;45439;-47
2022/06/29 12:21:41;;;;;;;;;2.00;2.00;;;;;;;;5094177;27;45400;-48
2022/06/29 12:24:06;;;;;;;;;2.00;0.00;;;;;;;;5094486;27;45673;-52
2022/06/29 12:26:32;;;;;;;;;2.00;2.00;;;;;;;;5094235;27;46692;-48
2022/06/29 12:28:57;;;;;;;;;1.40;1.40;;;;;;;;5093713;27;45840;-52
2022/06/29 12:31:23;;;;;;;;;2.50;2.50;;;;;;;;5094524;27;45434;-51
2022/06/29 12:33:49;;;;;;;;;2.00;2.00;;;;;;;;5081464;27;45522;-53
2022/06/29 12:36:14;;;;;;;;;0.20;0.20;;;;;;;;5093025;27;47013;-49
2022/06/29 12:38:40;;;;;;;;;1.25;1.25;;;;;;;;5093952;27;45851;-49
2022/06/29 12:41:05;;;;;;;;;0.50;0.50;;;;;;;;5094134;27;45420;-50
2022/06/29 12:43:30;;;;;;;;;3.25;2.00;;;;;;;;5091881;27;45356;-49
2022/06/29 12:45:56;;;;;;;;;3.00;1.00;;;;;;;;5093378;27;45853;-45
2022/06/29 12:48:21;;;;;;;;;4.40;3.00;;;;;;;;5092687;27;45792;-48
2022/06/29 12:50:47;;;;;;;;;2.75;2.00;;;;;;;;5085305;27;45574;-55
2022/06/29 12:53:12;;;;;;;;;1.00;1.00;;;;;;;;5067213;27;45397;-51
2022/06/29 12:55:38;;;;;;;;;2.00;2.00;;;;;;;;5093694;27;46212;-50
2022/06/29 12:58:03;;;;;;;;;5.80;1.60;;;;;;;;5087543;27;45477;-50
2022/06/29 13:00:29;;;;;;;;;2.00;2.00;;;;;;;;5092897;27;45778;-49
2022/06/29 13:02:54;;;;;;;;;1.00;1.00;;;;;;;;5093161;27;45687;-46
2022/06/29 13:05:21;;;;;;;;;2.00;2.00;;;;;;;;5092214;27;45785;-49
2022/06/29 13:07:46;;;;;;;;;2.20;2.20;;;;;;;;5091507;27;46352;-51
2022/06/29 13:10:12;;;;;;;;;0.50;0.50;;;;;;;;5091562;27;45556;-52
2022/06/29 13:12:37;;;;;;;;;1.75;1.75;;;;;;;;5092456;27;45560;-55
2022/06/29 13:15:03;;;;;;;;;4.00;2.00;;;;;;;;5092434;27;46703;-54
2022/06/29 13:17:28;;;;;;;;;3.25;2.75;;;;;;;;5092508;27;45421;-53
2022/06/29 13:19:55;;;;;;;;;3.00;3.00;;;;;;;;5092503;27;45806;-47
2022/06/29 13:22:22;;;;;;;;;2.00;2.00;;;;;;;;5092962;27;45370;-44
2022/06/29 13:24:47;;;;;;;;;1.20;1.20;;;;;;;;5092619;27;45441;-50
2022/06/29 13:27:12;;;;;;;;;0.00;0.00;;;;;;;;5092103;27;45343;-49
2022/06/29 13:29:38;;;;;;;;;2.00;2.00;;;;;;;;5092815;27;45787;-52
2022/06/29 13:32:03;;;;;;;;;4.50;2.75;;;;;;;;5093112;27;45358;-49
2022/06/29 13:34:28;;;;;;;;;2.50;2.00;;;;;;;;5078101;27;45389;-51
2022/06/29 13:36:54;;;;;;;;;1.00;1.00;;;;;;;;5092907;27;45372;-49
2022/06/29 13:39:20;;;;;;;;;2.50;2.00;;;;;;;;5092778;27;45377;-48
2022/06/29 13:41:45;;;;;;;;;1.75;1.75;;;;;;;;5091210;27;45930;-49
2022/06/29 13:44:10;;;;;;;;;1.50;1.00;;;;;;;;5092675;27;46578;-52
2022/06/29 13:46:36;;;;;;;;;1.50;1.50;;;;;;;;5092608;27;45486;-56
2022/06/29 13:49:01;;;;;;;;;2.50;2.50;;;;;;;;5092074;27;45383;-49
2022/06/29 13:51:26;;;;;;;;;2.00;2.00;;;;;;;;5080566;27;45793;-51
2022/06/29 13:53:52;;;;;;;;;3.50;3.50;;;;;;;;5079606;27;46008;-49
2022/06/29 13:56:17;;;;;;;;;3.00;2.00;;;;;;;;5091715;27;45764;-49
2022/06/29 13:58:43;;;;;;;;;4.00;4.00;;;;;;;;5091386;27;45877;-46
2022/06/29 14:01:10;;;;;;;;;1.00;1.00;;;;;;;;5092721;27;45924;-51
2022/06/29 14:03:35;;;;;;;;;2.20;2.00;;;;;;;;5091586;27;46659;-53
2022/06/29 14:06:01;;;;;;;;;2.00;2.00;;;;;;;;5092334;27;45391;-52
2022/06/29 14:08:26;;;;;;;;;2.00;2.00;;;;;;;;5077195;27;45901;-52
2022/06/29 14:10:51;;;;;;;;;3.00;3.00;;;;;;;;5072168;28;45379;-55
2022/06/29 14:13:17;;;;;;;;;2.00;2.00;;;;;;;;5079852;27;46231;-50
2022/06/29 14:15:43;;;;;;;;;1.20;1.20;;;;;;;;5092772;27;45367;-46
2022/06/29 14:18:08;;;;;;;;;1.50;1.00;;;;;;;;5093248;27;45295;-52
2022/06/29 14:20:34;;;;;;;;;2.00;1.00;;;;;;;;5092812;27;45750;-55
2022/06/29 14:22:59;;;;;;;;;2.75;2.75;;;;;;;;5092731;27;45944;-53
2022/06/29 14:25:25;;;;;;;;;2.00;2.00;;;;;;;;5092416;27;45694;-54
2022/06/29 14:27:50;;;;;;;;;0.25;0.25;;;;;;;;5092786;27;46215;-51
2022/06/29 14:30:15;;;;;;;;;1.25;1.25;;;;;;;;5092736;27;45729;-54
2022/06/29 14:32:41;;;;;;;;;2.00;2.00;;;;;;;;5079903;27;45973;-46
2022/06/29 14:35:08;;;;;;;;;1.00;1.00;;;;;;;;5092807;27;45804;-54
2022/06/29 14:37:34;;;;;;;;;1.00;1.00;;;;;;;;5092561;27;45408;-53
2022/06/29 14:39:59;;;;;;;;;3.00;2.00;;;;;;;;5093029;27;45528;-52
2022/06/29 14:42:25;;;;;;;;;0.00;0.00;;;;;;;;5092060;27;45792;-58
2022/06/29 14:44:50;;;;;;;;;2.50;2.00;;;;;;;;5091407;27;45493;-53
2022/06/29 14:47:15;;;;;;;;;3.00;1.25;;;;;;;;5091135;27;45927;-54
2022/06/29 14:49:40;;;;;;;;;4.25;4.00;;;;;;;;5092555;27;45474;-48
2022/06/29 14:52:06;;;;;;;;;3.50;2.00;;;;;;;;5091945;27;45995;-52
2022/06/29 14:54:31;;;;;;;;;1.75;1.75;;;;;;;;5079849;27;45615;-56
2022/06/29 14:56:57;;;;;;;;;3.25;2.00;;;;;;;;5090218;27;45855;-53
2022/06/29 14:59:22;;;;;;;;;1.00;1.00;;;;;;;;5088628;27;45493;-56
2022/06/29 15:01:47;;;;;;;;;1.00;1.00;;;;;;;;5087858;27;47554;-52
2022/06/29 15:04:12;;;;;;;;;1.25;1.25;;;;;;;;5090169;27;45911;-55
2022/06/29 15:06:38;;;;;;;;;1.00;1.00;;;;;;;;5091114;27;45504;-48